Terminal Aerodrome Forecast
Issued by NWS Wilmington, OH

Home | Current Version | Previous Version | Text Only | Print | Product List | Glossary On
Versions: 1 2 3 4 5 6 7 8 9 10 11 12 13 14 15 16
000
FTUS41 KILN 242300
TAFCMH
TAF
KCMH 242336Z 2500/2524 09005KT P6SM SCT080 BKN100 OVC140
     FM250100 13006KT P6SM SCT100 OVC250
     FM251000 14009KT 5SM -SHRA OVC060
     FM251300 15012KT P6SM VCSH OVC035
     FM251500 19013KT 4SM -SHRA VCTS OVC020CB
     FM252000 30018G28KT P6SM SCT040=

USA.gov is the U.S. government's official web portal to all federal, state and local government web resources and services.